Time;durP1;ratioP1;P1;durP2;ratioP2;P2;SDS_P1;SDS_P2;PMS_P1;PMS_P2;Temp;Humidity;BMP_temperature;BMP_pressure;BME280_temperature;BME280_humidity;BME280_pressure;Samples;Min_cycle;Max_cycle;Signal;HPM_P1;HPM_P2
2022/01/05 00:01:58;;;;;;;0.70;0.70;;;1.60;99.90;;;;;;5115515;28;20083;-79
2022/01/05 00:04:24;;;;;;;0.70;0.70;;;1.50;99.90;;;;;;5115117;28;20051;-79
2022/01/05 00:06:49;;;;;;;0.70;0.70;;;1.50;99.90;;;;;;5115112;28;20097;-78
2022/01/05 00:09:15;;;;;;;0.67;0.67;;;1.50;99.90;;;;;;5115057;28;20113;-79
2022/01/05 00:11:41;;;;;;;0.70;0.70;;;1.40;99.90;;;;;;5115094;28;20078;-78
2022/01/05 00:14:07;;;;;;;0.70;0.70;;;1.40;99.90;;;;;;5115084;28;20533;-78
2022/01/05 00:16:32;;;;;;;0.70;0.70;;;1.40;99.90;;;;;;5114957;28;20043;-79
2022/01/05 00:18:58;;;;;;;0.70;0.70;;;1.40;99.90;;;;;;5114854;28;20283;-78
2022/01/05 00:21:24;;;;;;;0.60;0.60;;;1.40;99.90;;;;;;5114945;28;20042;-78
2022/01/05 00:23:49;;;;;;;0.70;0.70;;;1.40;99.90;;;;;;5114768;28;20043;-77
2022/01/05 00:26:15;;;;;;;0.70;0.70;;;1.30;99.90;;;;;;5115393;28;20068;-79
2022/01/05 00:28:40;;;;;;;0.80;0.80;;;1.30;99.90;;;;;;5114655;28;20124;-78
2022/01/05 00:31:06;;;;;;;0.70;0.70;;;1.30;99.90;;;;;;5114746;28;20399;-78
2022/01/05 00:33:32;;;;;;;0.70;0.70;;;1.30;99.90;;;;;;5114792;28;20047;-80
2022/01/05 00:35:57;;;;;;;0.70;0.70;;;1.30;99.90;;;;;;5114658;28;20394;-79
2022/01/05 00:38:23;;;;;;;0.70;0.70;;;1.30;99.90;;;;;;5114583;28;20035;-78
2022/01/05 00:40:48;;;;;;;1.23;1.05;;;1.30;99.90;;;;;;5115171;28;20047;-79
2022/01/05 00:43:14;;;;;;;0.70;0.70;;;1.30;99.90;;;;;;5114525;28;20043;-79
2022/01/05 00:45:39;;;;;;;0.70;0.70;;;1.30;99.90;;;;;;5114634;28;20089;-78
2022/01/05 00:48:05;;;;;;;0.70;0.70;;;1.40;99.90;;;;;;5114490;28;20046;-79
2022/01/05 00:50:30;;;;;;;0.70;0.70;;;1.40;99.90;;;;;;5114477;28;20383;-79
2022/01/05 00:53:00;;;;;;;0.70;0.70;;;1.40;99.90;;;;;;5114341;28;20051;-78
2022/01/05 00:55:27;;;;;;;0.70;0.70;;;1.40;99.90;;;;;;5114583;28;20051;-78
2022/01/05 00:57:53;;;;;;;4.15;3.80;;;1.40;99.90;;;;;;5113313;28;20039;-78
2022/01/05 01:00:19;;;;;;;0.90;0.90;;;1.50;99.90;;;;;;5114510;28;20044;-77
2022/01/05 01:02:44;;;;;;;0.70;0.70;;;1.40;99.90;;;;;;5114493;28;20074;-78
2022/01/05 01:05:11;;;;;;;0.60;0.60;;;1.40;99.90;;;;;;5114358;28;20050;-78
2022/01/05 01:07:37;;;;;;;0.70;0.70;;;1.40;99.90;;;;;;5114360;28;20396;-79
2022/01/05 01:10:03;;;;;;;0.70;0.70;;;1.30;99.90;;;;;;5114241;28;20036;-78
2022/01/05 01:12:29;;;;;;;0.70;0.70;;;1.40;99.90;;;;;;5114127;28;20047;-78
2022/01/05 01:14:54;;;;;;;0.70;0.70;;;2.00;99.90;;;;;;5114119;28;20055;-78
2022/01/05 01:17:22;;;;;;;0.70;0.70;;;1.40;99.90;;;;;;5114355;28;20395;-78
2022/01/05 01:19:47;;;;;;;0.70;0.70;;;1.70;99.90;;;;;;5114234;28;20036;-78
2022/01/05 01:22:13;;;;;;;0.80;0.80;;;1.70;99.90;;;;;;5114146;28;20054;-78
2022/01/05 01:24:39;;;;;;;0.70;0.70;;;1.40;99.90;;;;;;5114060;28;20509;-79
2022/01/05 01:27:05;;;;;;;0.70;0.70;;;1.30;99.90;;;;;;5113049;28;20059;-79
2022/01/05 01:29:31;;;;;;;0.70;0.70;;;2.10;99.90;;;;;;5113914;28;20040;-78
2022/01/05 01:31:56;;;;;;;0.70;0.70;;;1.20;99.90;;;;;;5114149;28;20059;-79
2022/01/05 01:34:23;;;;;;;0.70;0.70;;;1.20;99.90;;;;;;5114108;28;20040;-79
2022/01/05 01:36:49;;;;;;;0.70;0.70;;;1.20;99.90;;;;;;5113776;28;20551;-79
2022/01/05 01:39:14;;;;;;;0.70;0.70;;;1.20;99.90;;;;;;5114057;28;20079;-79
2022/01/05 01:41:40;;;;;;;1.05;0.90;;;1.20;99.90;;;;;;5113968;28;20086;-78
2022/01/05 01:44:06;;;;;;;0.80;0.80;;;1.20;99.90;;;;;;5114077;28;20035;-78
2022/01/05 01:46:32;;;;;;;0.70;0.70;;;1.20;99.90;;;;;;5112876;28;20475;-78
2022/01/05 01:48:58;;;;;;;0.70;0.70;;;1.20;99.90;;;;;;5113661;28;20048;-78
2022/01/05 01:51:23;;;;;;;0.70;0.70;;;1.10;99.90;;;;;;5147023;27;20040;-79
2022/01/05 01:53:49;;;;;;;0.70;0.70;;;1.10;99.90;;;;;;5113767;28;20456;-79
2022/01/05 01:56:16;;;;;;;0.70;0.70;;;1.10;99.90;;;;;;5113766;28;20051;-79
2022/01/05 01:58:44;;;;;;;0.70;0.70;;;1.10;99.90;;;;;;5113727;28;20047;-79
2022/01/05 02:01:09;;;;;;;0.70;0.70;;;1.30;99.90;;;;;;5113112;28;20486;-79
2022/01/05 02:03:35;;;;;;;0.70;0.70;;;1.10;99.90;;;;;;5113741;28;20079;-79
2022/01/05 02:06:00;;;;;;;0.70;0.70;;;1.40;99.90;;;;;;5113647;28;20106;-78
2022/01/05 02:08:27;;;;;;;0.80;0.80;;;1.20;99.90;;;;;;5116153;28;20131;-79
2022/01/05 02:10:53;;;;;;;0.70;0.70;;;1.10;99.90;;;;;;5117444;28;20039;-79
2022/01/05 02:13:19;;;;;;;0.70;0.70;;;1.10;99.90;;;;;;5117355;28;20082;-78
2022/01/05 02:15:45;;;;;;;0.70;0.70;;;1.10;99.90;;;;;;5117539;28;20079;-78
2022/01/05 02:20:47;;;;;;;0.70;0.70;;;1.20;99.90;;;;;;5117377;28;20104;-78
2022/01/05 02:23:12;;;;;;;0.70;0.70;;;1.30;99.90;;;;;;5117247;28;20055;-78
2022/01/05 02:25:38;;;;;;;0.70;0.70;;;1.20;99.90;;;;;;5117261;28;20039;-78
2022/01/05 02:28:04;;;;;;;0.70;0.70;;;1.30;99.90;;;;;;5117154;28;20498;-78
2022/01/05 02:30:30;;;;;;;1.95;1.85;;;1.30;99.90;;;;;;5117131;28;20480;-79
2022/01/05 02:32:56;;;;;;;0.70;0.70;;;1.20;99.90;;;;;;5117122;28;20051;-79
2022/01/05 02:35:23;;;;;;;0.70;0.70;;;1.20;99.90;;;;;;5116929;28;20052;-78
2022/01/05 02:37:51;;;;;;;0.70;0.70;;;1.20;99.90;;;;;;5116625;28;20588;-78
2022/01/05 02:40:19;;;;;;;0.70;0.70;;;1.40;99.90;;;;;;5115816;28;20051;-77
2022/01/05 02:42:45;;;;;;;0.70;0.70;;;1.30;99.90;;;;;;5116851;28;20051;-78
2022/01/05 02:45:12;;;;;;;0.80;0.80;;;1.30;99.90;;;;;;5116820;28;20100;-79
2022/01/05 02:47:39;;;;;;;0.70;0.70;;;1.30;99.90;;;;;;5116838;28;20044;-78
2022/01/05 02:50:07;;;;;;;2.45;2.35;;;1.30;99.90;;;;;;5116577;28;20044;-78
2022/01/05 02:52:33;;;;;;;0.70;0.70;;;1.30;99.90;;;;;;5149921;27;20055;-79
2022/01/05 02:54:59;;;;;;;0.70;0.70;;;1.30;99.90;;;;;;5116164;28;20372;-77
2022/01/05 02:57:24;;;;;;;0.70;0.70;;;1.30;99.90;;;;;;5116703;28;20472;-78
2022/01/05 02:59:50;;;;;;;0.80;0.80;;;1.30;99.90;;;;;;5116548;28;20399;-78
2022/01/05 03:02:15;;;;;;;0.70;0.70;;;1.20;99.90;;;;;;5116458;28;20468;-79
2022/01/05 03:04:41;;;;;;;0.70;0.70;;;1.70;99.90;;;;;;5116351;28;20051;-80
2022/01/05 03:07:08;;;;;;;0.70;0.70;;;1.20;99.90;;;;;;5116516;28;20079;-79
2022/01/05 03:09:34;;;;;;;0.70;0.70;;;1.30;99.90;;;;;;5116329;28;20122;-79
2022/01/05 03:11:59;;;;;;;0.70;0.70;;;1.30;99.90;;;;;;5116596;28;20142;-78
2022/01/05 03:14:25;;;;;;;0.70;0.70;;;1.30;99.90;;;;;;5117776;28;20082;-79
2022/01/05 03:16:50;;;;;;;0.70;0.70;;;1.30;99.90;;;;;;5118435;28;20075;-79
2022/01/05 03:19:16;;;;;;;0.70;0.70;;;1.30;99.90;;;;;;5115560;28;20047;-79
2022/01/05 03:21:42;;;;;;;0.70;0.70;;;1.30;99.90;;;;;;5118197;28;20054;-78
2022/01/05 03:24:07;;;;;;;0.70;0.70;;;1.40;99.90;;;;;;5119293;28;20039;-79
2022/01/05 03:26:33;;;;;;;0.70;0.70;;;1.30;99.90;;;;;;5116084;28;20039;-80
2022/01/05 03:28:59;;;;;;;0.80;0.80;;;1.30;99.90;;;;;;5115862;28;20051;-78
2022/01/05 03:31:24;;;;;;;0.70;0.70;;;1.40;99.90;;;;;;5149499;27;20032;-80
2022/01/05 03:33:50;;;;;;;0.70;0.70;;;1.20;99.90;;;;;;5115862;28;20043;-80
2022/01/05 03:36:15;;;;;;;0.70;0.70;;;1.20;99.90;;;;;;5116058;28;20048;-79
2022/01/05 03:38:41;;;;;;;0.70;0.70;;;1.20;99.90;;;;;;5114736;28;20130;-80
2022/01/05 03:41:07;;;;;;;0.70;0.70;;;1.20;99.90;;;;;;5115636;28;20120;-79
2022/01/05 03:43:33;;;;;;;0.70;0.70;;;1.20;99.90;;;;;;5115629;28;20057;-80
2022/01/05 03:45:58;;;;;;;0.80;0.80;;;1.20;99.90;;;;;;5115653;28;20047;-80
2022/01/05 03:48:24;;;;;;;0.77;0.77;;;1.20;99.90;;;;;;5115482;28;20036;-79
2022/01/05 03:50:50;;;;;;;0.80;0.80;;;1.30;99.90;;;;;;5149276;27;20072;-79
2022/01/05 03:53:16;;;;;;;0.70;0.70;;;1.40;99.90;;;;;;5116482;28;20134;-78
2022/01/05 03:55:43;;;;;;;0.70;0.70;;;1.40;99.90;;;;;;5115448;28;20047;-78
2022/01/05 03:58:09;;;;;;;0.70;0.70;;;1.30;99.90;;;;;;5115613;28;20043;-79
2022/01/05 04:00:38;;;;;;;0.70;0.70;;;1.40;99.90;;;;;;5114113;28;20097;-79
2022/01/05 04:03:04;;;;;;;0.70;0.70;;;1.20;99.90;;;;;;5115279;28;20494;-79
2022/01/05 04:05:30;;;;;;;0.70;0.70;;;1.20;99.90;;;;;;5115223;28;20039;-80
2022/01/05 04:07:56;;;;;;;0.70;0.70;;;1.20;99.90;;;;;;5115060;28;20126;-80
2022/01/05 04:10:22;;;;;;;0.70;0.70;;;1.30;99.90;;;;;;5115466;28;20167;-80
2022/01/05 04:12:48;;;;;;;0.70;0.70;;;1.10;99.90;;;;;;5115095;28;20039;-80
2022/01/05 04:15:15;;;;;;;1.50;1.42;;;1.10;99.90;;;;;;5115055;28;20043;-80
2022/01/05 04:17:40;;;;;;;0.80;0.80;;;1.10;99.90;;;;;;5114986;28;20074;-79
2022/01/05 04:20:07;;;;;;;0.80;0.80;;;1.10;99.90;;;;;;5114861;28;20463;-81
2022/01/05 04:22:33;;;;;;;0.70;0.70;;;1.10;99.90;;;;;;5114850;28;20127;-80
2022/01/05 04:24:58;;;;;;;0.70;0.70;;;1.10;99.90;;;;;;5114902;28;20079;-79
2022/01/05 04:27:24;;;;;;;0.80;0.80;;;1.50;99.90;;;;;;5114828;28;20458;-79
2022/01/05 04:29:49;;;;;;;0.70;0.70;;;1.10;99.90;;;;;;5114646;28;20047;-80
2022/01/05 04:32:15;;;;;;;0.70;0.70;;;1.10;99.90;;;;;;5147248;27;20047;-80
2022/01/05 04:34:40;;;;;;;1.63;1.52;;;1.00;99.90;;;;;;5114571;28;20082;-79
2022/01/05 04:37:06;;;;;;;0.75;0.75;;;1.20;99.90;;;;;;5114618;28;20433;-80
2022/01/05 04:39:32;;;;;;;0.80;0.80;;;1.10;99.90;;;;;;5114622;28;20043;-79
2022/01/05 04:41:58;;;;;;;1.80;1.73;;;1.00;99.90;;;;;;5114798;28;20079;-79
2022/01/05 04:44:24;;;;;;;0.70;0.70;;;1.00;99.90;;;;;;5114486;28;20082;-80
2022/01/05 04:46:50;;;;;;;0.70;0.70;;;1.10;99.90;;;;;;5114537;28;20051;-80
2022/01/05 04:49:15;;;;;;;0.70;0.70;;;1.10;99.90;;;;;;5114094;28;20036;-79
2022/01/05 04:51:41;;;;;;;0.80;0.80;;;1.10;99.90;;;;;;5114383;28;20039;-79
2022/01/05 04:54:06;;;;;;;0.70;0.70;;;1.10;99.90;;;;;;5114174;28;20091;-79
2022/01/05 04:56:32;;;;;;;0.70;0.70;;;1.20;99.90;;;;;;5114362;28;20480;-79
2022/01/05 04:58:58;;;;;;;0.70;0.70;;;1.30;99.90;;;;;;5114533;28;20085;-78
2022/01/05 05:01:24;;;;;;;0.70;0.70;;;1.30;99.90;;;;;;5113142;28;20118;-78
2022/01/05 05:03:50;;;;;;;0.70;0.70;;;1.30;99.90;;;;;;5114167;28;20524;-79
2022/01/05 05:06:16;;;;;;;0.80;0.80;;;1.30;99.90;;;;;;5114325;28;20044;-79
2022/01/05 05:08:41;;;;;;;0.70;0.70;;;1.30;99.90;;;;;;5114189;28;20039;-77
2022/01/05 05:11:07;;;;;;;0.80;0.80;;;1.30;99.90;;;;;;5114143;28;20556;-79
2022/01/05 05:13:33;;;;;;;1.00;1.00;;;1.40;99.90;;;;;;5114176;28;20040;-79
2022/01/05 05:15:58;;;;;;;0.70;0.70;;;1.30;99.90;;;;;;5147351;27;20078;-79
2022/01/05 05:18:24;;;;;;;0.70;0.70;;;1.30;99.90;;;;;;5113887;28;20463;-79
2022/01/05 05:20:49;;;;;;;1.60;1.50;;;1.40;99.90;;;;;;5113886;28;20047;-78
2022/01/05 05:23:16;;;;;;;0.70;0.70;;;1.30;99.90;;;;;;5114117;28;20051;-79
2022/01/05 05:25:42;;;;;;;0.70;0.70;;;1.50;99.90;;;;;;5114114;28;20073;-79
2022/01/05 05:28:08;;;;;;;1.00;1.00;;;1.40;99.90;;;;;;5114019;28;20097;-78
2022/01/05 05:30:36;;;;;;;0.70;0.70;;;1.40;99.90;;;;;;5114049;28;20047;-78
2022/01/05 05:33:03;;;;;;;0.70;0.70;;;1.40;99.90;;;;;;5113601;28;20491;-79
2022/01/05 05:35:29;;;;;;;0.70;0.70;;;1.40;99.90;;;;;;5112816;28;20129;-78
2022/01/05 05:37:56;;;;;;;0.70;0.70;;;1.50;99.90;;;;;;5114083;28;20153;-78
2022/01/05 05:40:22;;;;;;;4.00;1.13;;;1.60;99.90;;;;;;5113874;28;20046;-77
2022/01/05 05:42:48;;;;;;;0.70;0.70;;;1.70;99.90;;;;;;5115778;28;20048;-78
2022/01/05 05:45:14;;;;;;;0.70;0.70;;;1.80;99.90;;;;;;5117935;28;20506;-78
2022/01/05 05:47:39;;;;;;;0.70;0.70;;;1.70;99.90;;;;;;5117839;28;20052;-78
2022/01/05 05:50:05;;;;;;;0.70;0.70;;;1.80;99.90;;;;;;5117793;28;20039;-78
2022/01/05 05:52:31;;;;;;;0.70;0.70;;;1.80;99.90;;;;;;5117713;27;20056;-78
2022/01/05 05:54:57;;;;;;;0.70;0.70;;;1.90;99.90;;;;;;5117869;28;20417;-78
2022/01/05 05:57:22;;;;;;;0.70;0.70;;;2.00;99.90;;;;;;5117723;28;20039;-79
2022/01/05 05:59:48;;;;;;;0.70;0.70;;;2.00;99.90;;;;;;5117603;28;20047;-78
2022/01/05 06:02:13;;;;;;;0.70;0.70;;;2.00;99.90;;;;;;5117618;28;20120;-79
2022/01/05 06:04:39;;;;;;;0.88;0.80;;;2.00;99.90;;;;;;5117526;28;20051;-78
2022/01/05 06:07:04;;;;;;;0.70;0.70;;;2.00;99.90;;;;;;5117881;28;20040;-78
2022/01/05 06:09:30;;;;;;;0.70;0.70;;;2.00;99.90;;;;;;5117902;28;20463;-79
2022/01/05 06:11:56;;;;;;;0.70;0.70;;;2.00;99.90;;;;;;5117466;28;20403;-79
2022/01/05 06:14:21;;;;;;;0.70;0.70;;;2.20;99.90;;;;;;5117453;28;20074;-79
2022/01/05 06:16:47;;;;;;;0.70;0.70;;;2.10;99.90;;;;;;5117342;28;20048;-79
2022/01/05 06:19:12;;;;;;;0.60;0.60;;;2.10;99.90;;;;;;5117242;28;20042;-79
2022/01/05 06:21:38;;;;;;;0.70;0.70;;;2.10;99.90;;;;;;5117287;28;20151;-79
2022/01/05 06:24:04;;;;;;;0.70;0.70;;;2.10;99.90;;;;;;5117249;28;20048;-79
2022/01/05 06:26:29;;;;;;;0.70;0.70;;;2.10;99.90;;;;;;5117298;28;20047;-79
2022/01/05 06:28:55;;;;;;;0.75;0.75;;;2.20;99.90;;;;;;5117082;28;20044;-79
2022/01/05 06:31:20;;;;;;;0.70;0.70;;;2.20;99.90;;;;;;5116583;28;20483;-79
2022/01/05 06:33:46;;;;;;;0.70;0.70;;;2.20;99.90;;;;;;5116947;28;20445;-80
2022/01/05 06:36:12;;;;;;;0.70;0.70;;;2.30;99.90;;;;;;5116917;28;20074;-79
2022/01/05 06:38:38;;;;;;;0.70;0.70;;;2.40;99.90;;;;;;5116892;28;20043;-79
2022/01/05 06:41:03;;;;;;;0.70;0.70;;;2.40;99.90;;;;;;5116986;28;20039;-78
2022/01/05 06:43:30;;;;;;;0.70;0.70;;;2.40;99.90;;;;;;5150356;27;20047;-80
2022/01/05 06:45:57;;;;;;;0.70;0.70;;;2.40;99.90;;;;;;5114975;28;20043;-77
2022/01/05 06:48:22;;;;;;;0.70;0.70;;;2.50;99.90;;;;;;5116622;28;20093;-78
2022/01/05 06:50:48;;;;;;;0.70;0.70;;;2.60;99.90;;;;;;5116608;28;20039;-78
2022/01/05 06:53:14;;;;;;;0.70;0.70;;;2.60;99.90;;;;;;5116245;28;20112;-77
2022/01/05 06:55:40;;;;;;;0.80;0.80;;;2.70;99.90;;;;;;5115785;28;20039;-78
2022/01/05 06:58:06;;;;;;;1.02;1.02;;;2.70;99.90;;;;;;5115293;28;20404;-78
2022/01/05 07:00:32;;;;;;;0.82;0.82;;;2.80;99.90;;;;;;5116404;28;20043;-80
2022/01/05 07:02:57;;;;;;;0.70;0.70;;;2.80;99.90;;;;;;5116322;27;20126;-79
2022/01/05 07:05:23;;;;;;;0.60;0.60;;;2.80;99.90;;;;;;5117239;27;20036;-79
2022/01/05 07:07:49;;;;;;;0.60;0.60;;;2.90;99.90;;;;;;5116369;28;20089;-78
2022/01/05 07:10:15;;;;;;;0.70;0.70;;;2.90;99.90;;;;;;5115507;28;20039;-79
2022/01/05 07:12:41;;;;;;;0.70;0.70;;;2.90;99.90;;;;;;5116345;28;20035;-78
2022/01/05 07:15:07;;;;;;;0.70;0.70;;;2.90;99.90;;;;;;5116705;28;20044;-78
2022/01/05 07:17:33;;;;;;;0.85;0.85;;;3.00;99.90;;;;;;5116113;28;20047;-79
2022/01/05 07:19:58;;;;;;;0.70;0.70;;;3.00;99.90;;;;;;5115918;28;20493;-79
2022/01/05 07:22:24;;;;;;;5.28;4.85;;;3.00;99.90;;;;;;5116100;28;20391;-78
2022/01/05 07:24:50;;;;;;;0.60;0.60;;;3.00;99.90;;;;;;5116034;28;20122;-78
2022/01/05 07:27:16;;;;;;;0.70;0.70;;;3.00;99.90;;;;;;5114569;28;20436;-79
2022/01/05 07:29:42;;;;;;;0.60;0.60;;;3.00;99.90;;;;;;5115470;28;20036;-78
2022/01/05 07:32:08;;;;;;;0.65;0.65;;;2.90;99.90;;;;;;5115905;28;20048;-78
2022/01/05 07:34:33;;;;;;;0.70;0.70;;;2.90;99.90;;;;;;5115831;28;20085;-77
2022/01/05 07:36:59;;;;;;;0.80;0.80;;;2.90;99.90;;;;;;5116418;28;20082;-78
2022/01/05 07:39:25;;;;;;;0.70;0.70;;;2.90;99.90;;;;;;5115788;28;20475;-80
2022/01/05 07:41:50;;;;;;;0.70;0.70;;;2.90;99.90;;;;;;5115812;28;20075;-77
2022/01/05 07:44:16;;;;;;;0.63;0.63;;;3.00;99.90;;;;;;5114769;28;20039;-78
2022/01/05 07:46:41;;;;;;;0.70;0.70;;;2.80;99.90;;;;;;5116062;28;20123;-79
2022/01/05 07:49:07;;;;;;;0.70;0.70;;;2.80;99.90;;;;;;5114574;28;20036;-79
2022/01/05 07:51:33;;;;;;;0.60;0.60;;;2.70;99.90;;;;;;5115675;28;20490;-79
2022/01/05 07:53:59;;;;;;;0.65;0.65;;;2.60;99.90;;;;;;5116043;28;20400;-76
2022/01/05 07:56:26;;;;;;;0.70;0.70;;;2.60;99.90;;;;;;5115391;28;20136;-78
2022/01/05 07:58:51;;;;;;;0.60;0.60;;;2.50;99.90;;;;;;5115185;28;20040;-78
2022/01/05 08:01:20;;;;;;;0.70;0.70;;;2.90;99.90;;;;;;5115418;28;20153;-79
2022/01/05 08:03:46;;;;;;;0.60;0.60;;;2.50;99.90;;;;;;5115186;28;20043;-78
2022/01/05 08:06:12;;;;;;;0.70;0.70;;;2.40;99.90;;;;;;5115302;28;20048;-78
2022/01/05 08:08:37;;;;;;;0.60;0.60;;;2.30;99.90;;;;;;5114481;28;20084;-78
2022/01/05 08:11:03;;;;;;;2.42;2.22;;;2.20;99.90;;;;;;5114906;28;20040;-78
2022/01/05 08:13:29;;;;;;;0.60;0.60;;;2.20;99.90;;;;;;5115020;28;20104;-80
2022/01/05 08:15:54;;;;;;;0.70;0.70;;;2.20;99.90;;;;;;5115023;28;20556;-78
2022/01/05 08:18:21;;;;;;;0.70;0.70;;;2.10;99.90;;;;;;5114968;28;20471;-78
2022/01/05 08:20:47;;;;;;;0.70;0.70;;;2.10;99.90;;;;;;5114932;28;20047;-81
2022/01/05 08:23:17;;;;;;;0.70;0.70;;;2.10;99.90;;;;;;5148627;27;20036;-78
2022/01/05 08:25:43;;;;;;;0.70;0.70;;;2.20;99.90;;;;;;5113726;28;20047;-81
2022/01/05 08:28:11;;;;;;;0.65;0.65;;;2.30;99.90;;;;;;5114020;28;20483;-81
2022/01/05 08:30:37;;;;;;;0.50;0.50;;;2.20;99.90;;;;;;5114568;28;20048;-79
2022/01/05 08:33:03;;;;;;;0.70;0.70;;;2.30;99.90;;;;;;5114331;28;20491;-80
2022/01/05 08:35:30;;;;;;;0.60;0.60;;;2.30;99.90;;;;;;5113946;28;20051;-80
2022/01/05 08:37:56;;;;;;;0.70;0.70;;;2.40;99.90;;;;;;5112033;28;20043;-79
2022/01/05 08:40:23;;;;;;;0.70;0.70;;;2.40;99.90;;;;;;5114301;28;20046;-79
2022/01/05 08:42:49;;;;;;;0.70;0.70;;;2.50;99.90;;;;;;5114322;28;20047;-79
2022/01/05 08:45:17;;;;;;;0.70;0.70;;;2.60;99.90;;;;;;5114794;28;20050;-77
2022/01/05 08:47:47;;;;;;;0.60;0.60;;;2.60;99.90;;;;;;5114510;28;20562;-77
2022/01/05 08:50:16;;;;;;;0.70;0.70;;;2.80;99.90;;;;;;5114498;28;20046;-77
2022/01/05 08:52:42;;;;;;;0.70;0.70;;;2.90;99.90;;;;;;5114249;28;20059;-76
2022/01/05 08:55:08;;;;;;;0.60;0.60;;;3.10;99.90;;;;;;5114824;28;20476;-77
2022/01/05 08:57:34;;;;;;;0.65;0.65;;;3.20;99.90;;;;;;5114421;28;20036;-76
2022/01/05 09:00:00;;;;;;;0.60;0.60;;;3.40;99.90;;;;;;5114492;28;20043;-77
2022/01/05 09:02:26;;;;;;;0.70;0.70;;;3.70;99.90;;;;;;5114307;28;20040;-75
2022/01/05 09:04:52;;;;;;;0.82;0.70;;;3.60;99.90;;;;;;5114575;28;20125;-77
2022/01/05 09:07:18;;;;;;;0.70;0.70;;;3.60;99.90;;;;;;5114482;28;20048;-77
2022/01/05 09:09:44;;;;;;;0.70;0.70;;;3.70;99.90;;;;;;5114659;28;20043;-77
2022/01/05 09:12:11;;;;;;;0.60;0.60;;;3.80;99.90;;;;;;5114518;28;20122;-79
2022/01/05 09:14:37;;;;;;;0.60;0.60;;;3.80;99.90;;;;;;5114437;28;20134;-77
2022/01/05 09:17:02;;;;;;;0.70;0.70;;;3.90;99.90;;;;;;5116600;28;20089;-80
2022/01/05 09:19:28;;;;;;;0.60;0.60;;;4.00;99.90;;;;;;5121212;28;20469;-76
2022/01/05 09:21:54;;;;;;;0.60;0.60;;;4.00;99.90;;;;;;5121222;27;20043;-80
2022/01/05 09:24:20;;;;;;;0.70;0.70;;;4.10;99.90;;;;;;5120123;28;20139;-80
2022/01/05 09:26:46;;;;;;;0.80;0.80;;;4.20;99.90;;;;;;5119940;28;20080;-75
2022/01/05 09:29:11;;;;;;;0.60;0.60;;;4.20;99.90;;;;;;5120908;28;20044;-76
2022/01/05 09:31:37;;;;;;;0.60;0.60;;;4.30;99.90;;;;;;5121346;28;20046;-74
2022/01/05 09:34:03;;;;;;;0.93;0.93;;;4.40;99.90;;;;;;5121242;28;20096;-75
2022/01/05 09:36:34;;;;;;;0.60;0.60;;;4.60;99.90;;;;;;5120866;27;20211;-77
2022/01/05 09:41:56;;;;;;;0.60;0.60;;;4.70;99.90;;;;;;5121125;28;20043;-79
2022/01/05 09:44:33;;;;;;;0.50;0.50;;;4.70;99.90;;;;;;5119592;28;20093;-77
2022/01/05 09:47:10;;;;;;;0.60;0.60;;;4.80;99.90;;;;;;5120877;27;20507;-76
2022/01/05 09:49:46;;;;;;;0.65;0.65;;;4.80;99.90;;;;;;5120176;28;20556;-77
2022/01/05 09:52:13;;;;;;;0.60;0.60;;;4.80;99.90;;;;;;5120775;27;20043;-77
2022/01/05 09:54:42;;;;;;;;;;;4.80;99.90;;;;;;5119884;28;20100;-77
2022/01/05 09:57:13;;;;;;;0.50;0.50;;;4.80;99.90;;;;;;5120608;27;19960;-75
2022/01/05 09:59:39;;;;;;;0.60;0.60;;;4.80;99.90;;;;;;5118112;27;20106;-75
2022/01/05 10:02:06;;;;;;;0.60;0.60;;;4.80;99.90;;;;;;5119945;27;20090;-75
2022/01/05 10:04:34;;;;;;;0.60;0.60;;;4.80;99.90;;;;;;5120342;27;20284;-75
2022/01/05 10:06:59;;;;;;;0.60;0.60;;;4.80;99.90;;;;;;5119889;28;20293;-75
2022/01/05 10:09:25;;;;;;;0.60;0.60;;;4.80;99.90;;;;;;5118953;28;20043;-75
2022/01/05 10:11:50;;;;;;;0.60;0.60;;;4.80;99.90;;;;;;5120008;28;20050;-75
2022/01/05 10:14:16;;;;;;;0.60;0.60;;;4.80;99.90;;;;;;5120096;27;20086;-75
2022/01/05 10:17:09;;;;;;;0.60;0.60;;;4.80;99.90;;;;;;5120014;27;20079;-77
2022/01/05 10:19:36;;;;;;;0.50;0.50;;;4.90;99.90;;;;;;5119386;27;20127;-76
2022/01/05 10:22:04;;;;;;;0.60;0.60;;;4.90;99.90;;;;;;5119371;28;20052;-75
2022/01/05 10:24:47;;;;;;;0.60;0.60;;;5.00;99.90;;;;;;5119784;27;20048;-75
2022/01/05 10:27:23;;;;;;;0.60;0.60;;;5.00;99.90;;;;;;5119913;27;20062;-75
2022/01/05 10:30:05;;;;;;;0.60;0.60;;;5.00;99.90;;;;;;5117133;27;20040;-75
2022/01/05 10:32:33;;;;;;;1.15;1.08;;;5.00;99.90;;;;;;5116916;28;20120;-76
2022/01/05 10:35:17;;;;;;;0.60;0.60;;;5.00;99.90;;;;;;5116463;27;20055;-76
2022/01/05 10:37:45;;;;;;;1.55;1.45;;;5.10;99.90;;;;;;5116570;28;20126;-76
2022/01/05 10:40:19;;;;;;;0.60;0.60;;;5.10;99.90;;;;;;5116281;28;20376;-76
2022/01/05 10:42:47;;;;;;;0.60;0.60;;;5.20;99.90;;;;;;5115572;28;20097;-76
2022/01/05 10:45:22;;;;;;;0.60;0.60;;;5.30;99.90;;;;;;5116288;28;20044;-75
2022/01/05 10:48:08;;;;;;;0.60;0.60;;;5.30;99.90;;;;;;5116369;28;20047;-77
2022/01/05 10:50:34;;;;;;;0.60;0.60;;;5.40;99.90;;;;;;5115931;27;20089;-76
2022/01/05 10:53:01;;;;;;;1.05;1.05;;;5.40;99.90;;;;;;5116242;28;20052;-76
2022/01/05 10:55:29;;;;;;;0.60;0.60;;;5.50;99.90;;;;;;5116187;28;20055;-76
2022/01/05 10:58:12;;;;;;;0.50;0.50;;;5.60;99.90;;;;;;5114912;28;20117;-76
2022/01/05 11:00:40;;;;;;;0.55;0.55;;;5.60;99.90;;;;;;5115373;28;20460;-76
2022/01/05 11:03:27;;;;;;;0.50;0.50;;;5.70;99.90;;;;;;5115882;28;20051;-75
2022/01/05 11:06:19;;;;;;;0.55;0.55;;;5.70;99.90;;;;;;5115635;28;20139;-76
2022/01/05 11:09:03;;;;;;;0.50;0.50;;;5.70;99.90;;;;;;5111542;28;20055;-77
2022/01/05 11:11:43;;;;;;;0.52;0.52;;;5.70;99.90;;;;;;5115661;28;20044;-77
2022/01/05 11:14:09;;;;;;;0.60;0.60;;;5.80;99.90;;;;;;5115867;28;20078;-77
2022/01/05 11:16:39;;;;;;;0.70;0.70;;;5.80;99.90;;;;;;5115870;28;20042;-77
2022/01/05 11:19:30;;;;;;;0.55;0.55;;;5.80;99.90;;;;;;5116035;28;20038;-77
2022/01/05 11:22:08;;;;;;;0.60;0.60;;;5.80;99.90;;;;;;5115980;28;20097;-77
2022/01/05 11:24:48;;;;;;;0.60;0.60;;;5.90;99.90;;;;;;5115626;28;20250;-78
2022/01/05 11:27:17;;;;;;;1.85;0.85;;;5.90;99.90;;;;;;5114925;28;20052;-76
2022/01/05 11:29:43;;;;;;;0.60;0.60;;;6.00;99.90;;;;;;5115379;28;20035;-76
2022/01/05 11:32:12;;;;;;;0.60;0.60;;;6.00;99.90;;;;;;5115636;28;20047;-77
2022/01/05 11:34:38;;;;;;;1.95;1.15;;;6.10;99.90;;;;;;5114258;28;20047;-78
2022/01/05 11:37:07;;;;;;;0.60;0.60;;;6.20;99.90;;;;;;5114384;28;20399;-83
2022/01/05 11:39:34;;;;;;;0.60;0.60;;;6.20;99.90;;;;;;5115100;28;20036;-77
2022/01/05 11:42:09;;;;;;;0.60;0.60;;;6.20;99.90;;;;;;5115158;28;20047;-78
2022/01/05 11:44:51;;;;;;;0.50;0.50;;;6.20;99.90;;;;;;5115405;28;20134;-78
2022/01/05 11:47:34;;;;;;;0.60;0.60;;;6.20;99.90;;;;;;5113990;28;20134;-76
2022/01/05 11:50:14;;;;;;;0.60;0.60;;;6.30;99.90;;;;;;5115321;28;20035;-76
2022/01/05 11:53:05;;;;;;;0.60;0.60;;;6.40;99.90;;;;;;5115138;28;20426;-75
2022/01/05 11:55:33;;;;;;;0.50;0.50;;;6.50;99.90;;;;;;5114790;28;20143;-78
2022/01/05 11:58:19;;;;;;;0.50;0.50;;;6.50;99.90;;;;;;5113608;28;20043;-79
2022/01/05 12:00:47;;;;;;;0.50;0.50;;;6.50;99.90;;;;;;5114556;28;20122;-81
2022/01/05 12:03:13;;;;;;;0.57;0.57;;;6.60;99.90;;;;;;5115566;28;20048;-76
2022/01/05 12:06:04;;;;;;;0.73;0.70;;;6.60;99.90;;;;;;5115174;28;20101;-79
2022/01/05 12:08:39;;;;;;;0.60;0.60;;;6.60;99.90;;;;;;5115646;28;20054;-78
2022/01/05 12:11:05;;;;;;;0.50;0.50;;;6.60;99.90;;;;;;5114826;28;20181;-79
2022/01/05 12:13:37;;;;;;;0.60;0.60;;;6.60;99.90;;;;;;5096127;28;20134;-79
2022/01/05 12:16:02;;;;;;;0.50;0.50;;;6.60;99.90;;;;;;5114105;28;20050;-79
2022/01/05 12:18:30;;;;;;;0.55;0.55;;;6.70;99.90;;;;;;5113981;28;20044;-79
2022/01/05 12:20:57;;;;;;;0.50;0.50;;;6.70;99.90;;;;;;5114888;28;20073;-79
2022/01/05 12:23:31;;;;;;;0.50;0.50;;;6.60;99.90;;;;;;5114013;28;20040;-79
2022/01/05 12:26:07;;;;;;;0.60;0.60;;;6.60;99.90;;;;;;5115001;28;20114;-79
2022/01/05 12:28:54;;;;;;;0.70;0.70;;;6.50;99.90;;;;;;5114928;28;20054;-78
2022/01/05 12:32:09;;;;;;;0.50;0.50;;;6.50;99.90;;;;;;5114367;28;20083;-78
2022/01/05 12:34:57;;;;;;;0.50;0.50;;;6.40;99.90;;;;;;5101264;28;20059;-78
2022/01/05 12:37:48;;;;;;;0.50;0.50;;;6.30;99.90;;;;;;5114856;28;20083;-78
2022/01/05 12:40:46;;;;;;;0.50;0.50;;;6.40;99.90;;;;;;5113986;28;20082;-79
2022/01/05 12:43:16;;;;;;;0.60;0.60;;;6.40;99.90;;;;;;5114545;28;20046;-78
2022/01/05 12:45:44;;;;;;;0.60;0.60;;;6.50;99.90;;;;;;5113620;28;20495;-79
2022/01/05 12:48:32;;;;;;;0.50;0.50;;;6.60;99.90;;;;;;5113658;28;20066;-78
2022/01/05 12:51:16;;;;;;;0.50;0.50;;;6.70;99.90;;;;;;5114679;28;20039;-78
2022/01/05 12:53:53;;;;;;;0.50;0.50;;;6.70;99.90;;;;;;5113803;28;20059;-78
2022/01/05 12:56:20;;;;;;;0.60;0.60;;;6.70;99.90;;;;;;5114587;28;20051;-78
2022/01/05 12:58:48;;;;;;;0.50;0.50;;;6.80;99.90;;;;;;5113701;28;20048;-79
2022/01/05 13:01:14;;;;;;;4.00;3.70;;;6.90;99.90;;;;;;5114476;28;20110;-79
2022/01/05 13:03:40;;;;;;;0.60;0.60;;;6.90;99.90;;;;;;5114350;28;20055;-79
2022/01/05 13:06:26;;;;;;;0.50;0.50;;;6.90;99.90;;;;;;5114140;28;20043;-78
2022/01/05 13:08:55;;;;;;;0.60;0.60;;;6.90;99.90;;;;;;5113751;28;20479;-78